sensor_id;sensor_type;location;lat;lon;timestamp;temperature;humidity
17795;DHT22;9021;50.882;4.326;2023-02-18T00:01:28;12.40;99.90
17795;DHT22;9021;50.882;4.326;2023-02-18T00:03:56;12.30;99.90
17795;DHT22;9021;50.882;4.326;2023-02-18T00:06:23;12.30;99.90
17795;DHT22;9021;50.882;4.326;2023-02-18T00:08:49;12.50;99.90
17795;DHT22;9021;50.882;4.326;2023-02-18T00:11:15;12.50;99.90
17795;DHT22;9021;50.882;4.326;2023-02-18T00:13:40;12.50;99.90
17795;DHT22;9021;50.882;4.326;2023-02-18T00:16:07;12.30;99.90
17795;DHT22;9021;50.882;4.326;2023-02-18T00:18:33;12.40;99.90
17795;DHT22;9021;50.882;4.326;2023-02-18T00:20:58;12.30;99.90
17795;DHT22;9021;50.882;4.326;2023-02-18T00:23:24;12.20;99.90
17795;DHT22;9021;50.882;4.326;2023-02-18T00:25:57;12.20;99.90
17795;DHT22;9021;50.882;4.326;2023-02-18T00:28:23;12.20;99.90
17795;DHT22;9021;50.882;4.326;2023-02-18T00:30:48;12.30;99.90
17795;DHT22;9021;50.882;4.326;2023-02-18T00:33:14;12.20;99.90
17795;DHT22;9021;50.882;4.326;2023-02-18T00:35:39;12.40;99.90
17795;DHT22;9021;50.882;4.326;2023-02-18T00:38:05;12.10;99.90
17795;DHT22;9021;50.882;4.326;2023-02-18T00:40:30;12.30;99.90
17795;DHT22;9021;50.882;4.326;2023-02-18T00:42:56;12.10;99.90
17795;DHT22;9021;50.882;4.326;2023-02-18T00:45:21;12.10;99.90
17795;DHT22;9021;50.882;4.326;2023-02-18T00:47:47;12.10;99.90
17795;DHT22;9021;50.882;4.326;2023-02-18T00:50:12;12.10;99.90
17795;DHT22;9021;50.882;4.326;2023-02-18T00:52:38;12.30;99.90
17795;DHT22;9021;50.882;4.326;2023-02-18T00:55:03;12.10;99.90
17795;DHT22;9021;50.882;4.326;2023-02-18T00:57:29;12.00;99.90
17795;DHT22;9021;50.882;4.326;2023-02-18T00:59:54;12.00;99.90
17795;DHT22;9021;50.882;4.326;2023-02-18T01:02:20;12.30;99.90
17795;DHT22;9021;50.882;4.326;2023-02-18T01:04:45;12.10;99.90
17795;DHT22;9021;50.882;4.326;2023-02-18T01:07:11;12.10;99.90
17795;DHT22;9021;50.882;4.326;2023-02-18T01:09:36;12.10;99.90
17795;DHT22;9021;50.882;4.326;2023-02-18T01:12:02;12.30;99.90
17795;DHT22;9021;50.882;4.326;2023-02-18T01:14:27;12.00;99.90
17795;DHT22;9021;50.882;4.326;2023-02-18T01:16:53;12.10;99.90
17795;DHT22;9021;50.882;4.326;2023-02-18T01:19:18;12.10;99.90
17795;DHT22;9021;50.882;4.326;2023-02-18T01:21:44;12.10;99.90
17795;DHT22;9021;50.882;4.326;2023-02-18T01:24:09;12.10;99.90
17795;DHT22;9021;50.882;4.326;2023-02-18T01:26:35;12.10;99.90
17795;DHT22;9021;50.882;4.326;2023-02-18T01:29:00;12.10;99.90
17795;DHT22;9021;50.882;4.326;2023-02-18T01:31:26;12.10;99.90
17795;DHT22;9021;50.882;4.326;2023-02-18T01:33:52;12.10;99.90
17795;DHT22;9021;50.882;4.326;2023-02-18T01:36:17;12.00;99.90
17795;DHT22;9021;50.882;4.326;2023-02-18T01:38:42;12.00;99.90
17795;DHT22;9021;50.882;4.326;2023-02-18T01:41:08;11.90;99.90
17795;DHT22;9021;50.882;4.326;2023-02-18T01:43:34;11.90;99.90
17795;DHT22;9021;50.882;4.326;2023-02-18T01:49:11;11.90;99.90
17795;DHT22;9021;50.882;4.326;2023-02-18T01:51:31;11.90;99.90
17795;DHT22;9021;50.882;4.326;2023-02-18T01:53:58;11.90;99.90
17795;DHT22;9021;50.882;4.326;2023-02-18T01:56:40;12.00;99.90
17795;DHT22;9021;50.882;4.326;2023-02-18T01:59:08;12.00;99.90
17795;DHT22;9021;50.882;4.326;2023-02-18T02:01:34;12.00;99.90
17795;DHT22;9021;50.882;4.326;2023-02-18T02:04:00;12.00;99.90
17795;DHT22;9021;50.882;4.326;2023-02-18T02:06:25;12.00;99.90
17795;DHT22;9021;50.882;4.326;2023-02-18T02:08:52;12.10;99.90
17795;DHT22;9021;50.882;4.326;2023-02-18T02:13:57;12.00;99.90
17795;DHT22;9021;50.882;4.326;2023-02-18T02:16:33;12.00;99.90
17795;DHT22;9021;50.882;4.326;2023-02-18T02:21:36;12.00;99.90
17795;DHT22;9021;50.882;4.326;2023-02-18T02:26:57;12.00;99.90
17795;DHT22;9021;50.882;4.326;2023-02-18T02:32:02;12.00;99.90
17795;DHT22;9021;50.882;4.326;2023-02-18T02:34:49;12.00;99.90
17795;DHT22;9021;50.882;4.326;2023-02-18T02:39:55;11.90;99.90
17795;DHT22;9021;50.882;4.326;2023-02-18T02:45:03;12.00;99.90
17795;DHT22;9021;50.882;4.326;2023-02-18T02:47:36;11.90;99.90
17795;DHT22;9021;50.882;4.326;2023-02-18T02:50:03;11.80;99.90
17795;DHT22;9021;50.882;4.326;2023-02-18T02:52:35;11.90;99.90
17795;DHT22;9021;50.882;4.326;2023-02-18T02:55:06;11.90;99.90
17795;DHT22;9021;50.882;4.326;2023-02-18T03:00:03;11.90;99.90
17795;DHT22;9021;50.882;4.326;2023-02-18T03:05:18;11.90;99.90
17795;DHT22;9021;50.882;4.326;2023-02-18T03:10:21;11.90;99.90
17795;DHT22;9021;50.882;4.326;2023-02-18T03:13:04;11.90;99.90
17795;DHT22;9021;50.882;4.326;2023-02-18T03:16:06;11.90;99.90
17795;DHT22;9021;50.882;4.326;2023-02-18T03:18:25;11.90;99.90
17795;DHT22;9021;50.882;4.326;2023-02-18T03:20:57;11.90;99.90
17795;DHT22;9021;50.882;4.326;2023-02-18T03:23:26;11.90;99.90
17795;DHT22;9021;50.882;4.326;2023-02-18T03:25:53;11.90;99.90
17795;DHT22;9021;50.882;4.326;2023-02-18T03:28:20;11.90;99.90
17795;DHT22;9021;50.882;4.326;2023-02-18T03:30:47;12.00;99.90
17795;DHT22;9021;50.882;4.326;2023-02-18T03:33:16;11.80;99.90
17795;DHT22;9021;50.882;4.326;2023-02-18T03:35:43;11.80;99.90
17795;DHT22;9021;50.882;4.326;2023-02-18T03:40:34;11.80;99.90
17795;DHT22;9021;50.882;4.326;2023-02-18T03:42:59;11.70;99.90
17795;DHT22;9021;50.882;4.326;2023-02-18T03:45:25;11.70;99.90
17795;DHT22;9021;50.882;4.326;2023-02-18T03:47:51;11.70;99.90
17795;DHT22;9021;50.882;4.326;2023-02-18T03:50:17;11.70;99.90
17795;DHT22;9021;50.882;4.326;2023-02-18T03:52:42;11.70;99.90
17795;DHT22;9021;50.882;4.326;2023-02-18T03:55:08;11.80;99.90
17795;DHT22;9021;50.882;4.326;2023-02-18T03:57:34;11.70;99.90
17795;DHT22;9021;50.882;4.326;2023-02-18T03:59:59;11.70;99.90
17795;DHT22;9021;50.882;4.326;2023-02-18T04:02:25;11.70;99.90
17795;DHT22;9021;50.882;4.326;2023-02-18T04:04:50;11.70;99.90
17795;DHT22;9021;50.882;4.326;2023-02-18T04:07:16;11.80;99.90
17795;DHT22;9021;50.882;4.326;2023-02-18T04:09:42;12.10;99.90
17795;DHT22;9021;50.882;4.326;2023-02-18T04:12:07;11.70;99.90
17795;DHT22;9021;50.882;4.326;2023-02-18T04:14:33;11.70;99.90
17795;DHT22;9021;50.882;4.326;2023-02-18T04:16:58;11.70;99.90
17795;DHT22;9021;50.882;4.326;2023-02-18T04:19:24;11.60;99.90
17795;DHT22;9021;50.882;4.326;2023-02-18T04:21:49;11.80;99.90
17795;DHT22;9021;50.882;4.326;2023-02-18T04:24:15;11.50;99.90
17795;DHT22;9021;50.882;4.326;2023-02-18T04:26:40;11.50;99.90
17795;DHT22;9021;50.882;4.326;2023-02-18T04:29:06;11.50;99.90
17795;DHT22;9021;50.882;4.326;2023-02-18T04:31:31;11.50;99.90
17795;DHT22;9021;50.882;4.326;2023-02-18T04:33:57;11.60;99.90
17795;DHT22;9021;50.882;4.326;2023-02-18T04:36:22;12.50;99.90
17795;DHT22;9021;50.882;4.326;2023-02-18T04:38:48;11.40;99.90
17795;DHT22;9021;50.882;4.326;2023-02-18T04:41:13;11.50;99.90
17795;DHT22;9021;50.882;4.326;2023-02-18T04:43:39;12.30;99.90
17795;DHT22;9021;50.882;4.326;2023-02-18T04:46:04;11.40;99.90
17795;DHT22;9021;50.882;4.326;2023-02-18T04:48:30;11.40;99.90
17795;DHT22;9021;50.882;4.326;2023-02-18T04:50:56;11.80;99.90
17795;DHT22;9021;50.882;4.326;2023-02-18T04:53:21;11.50;99.90
17795;DHT22;9021;50.882;4.326;2023-02-18T04:55:50;11.50;99.90
17795;DHT22;9021;50.882;4.326;2023-02-18T04:58:16;11.50;99.90
17795;DHT22;9021;50.882;4.326;2023-02-18T05:00:42;11.40;99.90
17795;DHT22;9021;50.882;4.326;2023-02-18T05:03:07;11.60;99.90
17795;DHT22;9021;50.882;4.326;2023-02-18T05:05:33;12.00;99.90
17795;DHT22;9021;50.882;4.326;2023-02-18T05:07:58;11.60;99.90
17795;DHT22;9021;50.882;4.326;2023-02-18T05:10:24;11.60;99.90
17795;DHT22;9021;50.882;4.326;2023-02-18T05:12:49;11.50;99.90
17795;DHT22;9021;50.882;4.326;2023-02-18T05:15:15;12.00;99.90
17795;DHT22;9021;50.882;4.326;2023-02-18T05:17:40;11.60;99.90
17795;DHT22;9021;50.882;4.326;2023-02-18T05:20:06;12.50;99.90
17795;DHT22;9021;50.882;4.326;2023-02-18T05:22:32;11.50;99.90
17795;DHT22;9021;50.882;4.326;2023-02-18T05:24:57;11.90;99.90
17795;DHT22;9021;50.882;4.326;2023-02-18T05:27:23;11.50;99.90
17795;DHT22;9021;50.882;4.326;2023-02-18T05:29:48;11.80;99.90
17795;DHT22;9021;50.882;4.326;2023-02-18T05:32:14;11.90;99.90
17795;DHT22;9021;50.882;4.326;2023-02-18T05:34:39;11.40;99.90
17795;DHT22;9021;50.882;4.326;2023-02-18T05:37:05;11.40;99.90
17795;DHT22;9021;50.882;4.326;2023-02-18T05:39:30;11.30;99.90
17795;DHT22;9021;50.882;4.326;2023-02-18T05:41:56;11.30;99.90
17795;DHT22;9021;50.882;4.326;2023-02-18T05:44:21;11.40;99.90
17795;DHT22;9021;50.882;4.326;2023-02-18T05:46:57;11.40;99.90
17795;DHT22;9021;50.882;4.326;2023-02-18T05:49:23;11.40;99.90
17795;DHT22;9021;50.882;4.326;2023-02-18T05:51:48;11.50;99.90
17795;DHT22;9021;50.882;4.326;2023-02-18T05:54:14;12.50;99.90
17795;DHT22;9021;50.882;4.326;2023-02-18T05:56:39;11.30;99.90
17795;DHT22;9021;50.882;4.326;2023-02-18T05:59:05;11.30;99.90
17795;DHT22;9021;50.882;4.326;2023-02-18T06:01:31;11.30;99.90
17795;DHT22;9021;50.882;4.326;2023-02-18T06:03:56;11.40;99.90
17795;DHT22;9021;50.882;4.326;2023-02-18T06:06:22;11.50;99.90
17795;DHT22;9021;50.882;4.326;2023-02-18T06:08:47;11.30;99.90
17795;DHT22;9021;50.882;4.326;2023-02-18T06:11:13;11.40;99.90
17795;DHT22;9021;50.882;4.326;2023-02-18T06:13:38;11.40;99.90
17795;DHT22;9021;50.882;4.326;2023-02-18T06:16:04;11.30;99.90
17795;DHT22;9021;50.882;4.326;2023-02-18T06:18:29;11.40;99.90
17795;DHT22;9021;50.882;4.326;2023-02-18T06:20:55;11.40;99.90
17795;DHT22;9021;50.882;4.326;2023-02-18T06:23:20;11.30;99.90
17795;DHT22;9021;50.882;4.326;2023-02-18T06:25:49;11.90;99.90
17795;DHT22;9021;50.882;4.326;2023-02-18T06:28:15;11.40;99.90
17795;DHT22;9021;50.882;4.326;2023-02-18T06:30:40;11.90;99.90
17795;DHT22;9021;50.882;4.326;2023-02-18T06:33:06;11.50;99.90
17795;DHT22;9021;50.882;4.326;2023-02-18T06:35:31;11.40;99.90
17795;DHT22;9021;50.882;4.326;2023-02-18T06:37:57;11.40;99.90
17795;DHT22;9021;50.882;4.326;2023-02-18T06:40:23;12.00;99.90
17795;DHT22;9021;50.882;4.326;2023-02-18T06:42:48;11.50;99.90
17795;DHT22;9021;50.882;4.326;2023-02-18T06:45:14;11.50;99.90
17795;DHT22;9021;50.882;4.326;2023-02-18T06:47:39;11.40;99.90
17795;DHT22;9021;50.882;4.326;2023-02-18T06:50:05;11.60;99.90
17795;DHT22;9021;50.882;4.326;2023-02-18T06:55:07;11.50;99.90
17795;DHT22;9021;50.882;4.326;2023-02-18T06:57:36;11.50;99.90
17795;DHT22;9021;50.882;4.326;2023-02-18T07:00:02;11.60;99.90
17795;DHT22;9021;50.882;4.326;2023-02-18T07:02:28;11.50;99.90
17795;DHT22;9021;50.882;4.326;2023-02-18T07:04:53;11.60;99.90
17795;DHT22;9021;50.882;4.326;2023-02-18T07:07:19;11.70;99.90
17795;DHT22;9021;50.882;4.326;2023-02-18T07:09:44;11.80;99.90
17795;DHT22;9021;50.882;4.326;2023-02-18T07:12:10;11.50;99.90
17795;DHT22;9021;50.882;4.326;2023-02-18T07:14:35;11.60;99.90
17795;DHT22;9021;50.882;4.326;2023-02-18T07:17:01;11.50;99.90
17795;DHT22;9021;50.882;4.326;2023-02-18T07:19:26;11.50;99.90
17795;DHT22;9021;50.882;4.326;2023-02-18T07:21:52;11.30;99.90
17795;DHT22;9021;50.882;4.326;2023-02-18T07:24:18;11.40;99.90
17795;DHT22;9021;50.882;4.326;2023-02-18T07:26:44;11.40;99.90
17795;DHT22;9021;50.882;4.326;2023-02-18T07:29:09;11.40;99.90
17795;DHT22;9021;50.882;4.326;2023-02-18T07:31:35;11.50;99.90
17795;DHT22;9021;50.882;4.326;2023-02-18T07:34:02;11.60;99.90
17795;DHT22;9021;50.882;4.326;2023-02-18T07:36:28;11.50;99.90
17795;DHT22;9021;50.882;4.326;2023-02-18T07:38:53;11.60;99.90
17795;DHT22;9021;50.882;4.326;2023-02-18T07:41:19;11.50;99.90
17795;DHT22;9021;50.882;4.326;2023-02-18T07:43:45;11.50;99.90
17795;DHT22;9021;50.882;4.326;2023-02-18T07:46:11;11.50;99.90
17795;DHT22;9021;50.882;4.326;2023-02-18T07:48:36;11.50;99.90
17795;DHT22;9021;50.882;4.326;2023-02-18T07:51:05;11.40;99.90
17795;DHT22;9021;50.882;4.326;2023-02-18T07:53:31;11.40;99.90
17795;DHT22;9021;50.882;4.326;2023-02-18T07:55:57;11.60;99.90
17795;DHT22;9021;50.882;4.326;2023-02-18T07:58:28;11.60;99.90
17795;DHT22;9021;50.882;4.326;2023-02-18T08:00:55;11.70;99.90
17795;DHT22;9021;50.882;4.326;2023-02-18T08:03:22;10.90;99.90
17795;DHT22;9021;50.882;4.326;2023-02-18T08:05:48;11.60;99.90
17795;DHT22;9021;50.882;4.326;2023-02-18T08:08:15;11.80;99.90
17795;DHT22;9021;50.882;4.326;2023-02-18T08:10:41;11.70;99.90
17795;DHT22;9021;50.882;4.326;2023-02-18T08:13:06;11.90;99.90
17795;DHT22;9021;50.882;4.326;2023-02-18T08:15:32;11.70;99.90
17795;DHT22;9021;50.882;4.326;2023-02-18T08:17:57;11.80;99.90
17795;DHT22;9021;50.882;4.326;2023-02-18T08:20:23;11.80;99.90
17795;DHT22;9021;50.882;4.326;2023-02-18T08:22:49;11.80;99.90
17795;DHT22;9021;50.882;4.326;2023-02-18T08:25:14;11.80;99.90
17795;DHT22;9021;50.882;4.326;2023-02-18T08:27:40;11.80;99.90
17795;DHT22;9021;50.882;4.326;2023-02-18T08:30:06;11.80;99.90
17795;DHT22;9021;50.882;4.326;2023-02-18T08:32:31;11.80;99.90
17795;DHT22;9021;50.882;4.326;2023-02-18T08:34:57;11.90;99.90
17795;DHT22;9021;50.882;4.326;2023-02-18T08:37:22;11.90;99.90
17795;DHT22;9021;50.882;4.326;2023-02-18T08:39:48;11.80;99.90
17795;DHT22;9021;50.882;4.326;2023-02-18T08:42:14;12.40;99.90
17795;DHT22;9021;50.882;4.326;2023-02-18T08:44:39;11.80;99.90
17795;DHT22;9021;50.882;4.326;2023-02-18T08:47:05;11.90;99.90
17795;DHT22;9021;50.882;4.326;2023-02-18T08:49:30;11.80;99.90
17795;DHT22;9021;50.882;4.326;2023-02-18T08:51:56;11.90;99.90
17795;DHT22;9021;50.882;4.326;2023-02-18T08:54:21;11.80;99.90
17795;DHT22;9021;50.882;4.326;2023-02-18T08:56:47;11.90;99.90
17795;DHT22;9021;50.882;4.326;2023-02-18T08:59:12;12.00;99.90
17795;DHT22;9021;50.882;4.326;2023-02-18T09:01:38;12.00;99.90
17795;DHT22;9021;50.882;4.326;2023-02-18T09:04:03;11.90;99.90
17795;DHT22;9021;50.882;4.326;2023-02-18T09:06:29;11.80;99.90
17795;DHT22;9021;50.882;4.326;2023-02-18T09:08:55;11.80;99.90
17795;DHT22;9021;50.882;4.326;2023-02-18T09:11:20;12.00;99.90
17795;DHT22;9021;50.882;4.326;2023-02-18T09:13:46;11.90;99.90
17795;DHT22;9021;50.882;4.326;2023-02-18T09:16:12;12.00;99.90
17795;DHT22;9021;50.882;4.326;2023-02-18T09:18:38;12.10;99.90
17795;DHT22;9021;50.882;4.326;2023-02-18T09:21:05;12.00;99.90
17795;DHT22;9021;50.882;4.326;2023-02-18T09:23:31;12.00;99.90
17795;DHT22;9021;50.882;4.326;2023-02-18T09:25:58;12.30;99.90
17795;DHT22;9021;50.882;4.326;2023-02-18T09:28:24;12.00;99.90
17795;DHT22;9021;50.882;4.326;2023-02-18T09:30:50;12.10;99.90
17795;DHT22;9021;50.882;4.326;2023-02-18T09:33:16;12.10;99.90
17795;DHT22;9021;50.882;4.326;2023-02-18T09:35:42;12.00;99.90
17795;DHT22;9021;50.882;4.326;2023-02-18T09:38:11;12.20;99.90
17795;DHT22;9021;50.882;4.326;2023-02-18T09:40:38;12.10;99.90
17795;DHT22;9021;50.882;4.326;2023-02-18T09:43:04;12.20;99.90
17795;DHT22;9021;50.882;4.326;2023-02-18T09:45:30;12.10;99.90
17795;DHT22;9021;50.882;4.326;2023-02-18T09:47:55;12.10;99.90
17795;DHT22;9021;50.882;4.326;2023-02-18T09:52:47;12.10;99.90
17795;DHT22;9021;50.882;4.326;2023-02-18T09:55:16;12.20;99.90
17795;DHT22;9021;50.882;4.326;2023-02-18T09:57:47;12.10;99.90
17795;DHT22;9021;50.882;4.326;2023-02-18T10:00:18;12.10;99.90
17795;DHT22;9021;50.882;4.326;2023-02-18T10:03:26;12.10;99.90
17795;DHT22;9021;50.882;4.326;2023-02-18T10:05:33;12.10;99.90
17795;DHT22;9021;50.882;4.326;2023-02-18T10:08:01;12.10;99.90
17795;DHT22;9021;50.882;4.326;2023-02-18T10:12:55;12.30;99.90
17795;DHT22;9021;50.882;4.326;2023-02-18T10:15:21;12.30;99.90
17795;DHT22;9021;50.882;4.326;2023-02-18T10:17:47;12.30;99.90
17795;DHT22;9021;50.882;4.326;2023-02-18T10:20:16;12.40;99.90
17795;DHT22;9021;50.882;4.326;2023-02-18T10:22:43;12.40;99.90
17795;DHT22;9021;50.882;4.326;2023-02-18T10:25:11;12.40;99.90
17795;DHT22;9021;50.882;4.326;2023-02-18T10:27:41;12.50;99.90
17795;DHT22;9021;50.882;4.326;2023-02-18T10:30:23;12.40;99.90
17795;DHT22;9021;50.882;4.326;2023-02-18T10:32:58;12.40;99.90
17795;DHT22;9021;50.882;4.326;2023-02-18T10:35:37;12.50;99.90
17795;DHT22;9021;50.882;4.326;2023-02-18T10:42:59;12.50;99.90
17795;DHT22;9021;50.882;4.326;2023-02-18T10:50:34;12.60;99.90
17795;DHT22;9021;50.882;4.326;2023-02-18T10:53:09;12.70;99.90
17795;DHT22;9021;50.882;4.326;2023-02-18T10:55:39;12.70;99.90
17795;DHT22;9021;50.882;4.326;2023-02-18T11:00:49;12.70;99.90
17795;DHT22;9021;50.882;4.326;2023-02-18T11:03:16;12.70;99.90
17795;DHT22;9021;50.882;4.326;2023-02-18T11:05:42;12.70;99.90
17795;DHT22;9021;50.882;4.326;2023-02-18T11:08:09;12.70;99.90
17795;DHT22;9021;50.882;4.326;2023-02-18T11:10:38;12.70;99.90
17795;DHT22;9021;50.882;4.326;2023-02-18T11:13:05;12.70;99.90
17795;DHT22;9021;50.882;4.326;2023-02-18T11:15:31;12.80;99.90
17795;DHT22;9021;50.882;4.326;2023-02-18T11:18:10;12.40;99.90
17795;DHT22;9021;50.882;4.326;2023-02-18T11:20:36;13.00;99.90
17795;DHT22;9021;50.882;4.326;2023-02-18T11:25:31;13.00;99.90
17795;DHT22;9021;50.882;4.326;2023-02-18T11:27:59;13.00;99.90
17795;DHT22;9021;50.882;4.326;2023-02-18T11:30:26;12.80;99.90
17795;DHT22;9021;50.882;4.326;2023-02-18T11:32:56;12.90;99.90
17795;DHT22;9021;50.882;4.326;2023-02-18T11:35:24;13.00;99.90
17795;DHT22;9021;50.882;4.326;2023-02-18T11:37:50;13.10;99.90
17795;DHT22;9021;50.882;4.326;2023-02-18T11:40:20;13.10;99.90
17795;DHT22;9021;50.882;4.326;2023-02-18T11:42:47;13.00;99.90
17795;DHT22;9021;50.882;4.326;2023-02-18T11:45:29;13.10;99.90
17795;DHT22;9021;50.882;4.326;2023-02-18T11:47:59;13.00;99.90
17795;DHT22;9021;50.882;4.326;2023-02-18T11:50:25;13.00;99.90
17795;DHT22;9021;50.882;4.326;2023-02-18T11:52:54;13.00;99.90
17795;DHT22;9021;50.882;4.326;2023-02-18T11:55:28;13.00;99.90
17795;DHT22;9021;50.882;4.326;2023-02-18T11:58:02;13.00;99.90
17795;DHT22;9021;50.882;4.326;2023-02-18T12:00:45;13.10;99.90
17795;DHT22;9021;50.882;4.326;2023-02-18T12:05:49;13.20;99.90
17795;DHT22;9021;50.882;4.326;2023-02-18T12:08:20;13.30;99.90
17795;DHT22;9021;50.882;4.326;2023-02-18T12:10:47;13.30;99.90
17795;DHT22;9021;50.882;4.326;2023-02-18T12:13:25;13.20;99.90
17795;DHT22;9021;50.882;4.326;2023-02-18T12:18:48;13.30;99.90
17795;DHT22;9021;50.882;4.326;2023-02-18T12:21:22;13.30;99.90
17795;DHT22;9021;50.882;4.326;2023-02-18T12:28:50;13.50;99.90
17795;DHT22;9021;50.882;4.326;2023-02-18T12:39:08;13.40;99.90
17795;DHT22;9021;50.882;4.326;2023-02-18T12:49:23;13.50;99.90
17795;DHT22;9021;50.882;4.326;2023-02-18T12:56:52;13.40;99.90
17795;DHT22;9021;50.882;4.326;2023-02-18T13:15:55;13.40;99.90
17795;DHT22;9021;50.882;4.326;2023-02-18T13:17:56;13.30;99.90
17795;DHT22;9021;50.882;4.326;2023-02-18T13:20:24;13.30;99.90
17795;DHT22;9021;50.882;4.326;2023-02-18T13:22:51;13.30;99.90
17795;DHT22;9021;50.882;4.326;2023-02-18T13:25:17;13.20;99.90
17795;DHT22;9021;50.882;4.326;2023-02-18T13:40:08;13.00;99.90
17795;DHT22;9021;50.882;4.326;2023-02-18T13:42:38;13.00;99.90
17795;DHT22;9021;50.882;4.326;2023-02-18T13:45:05;13.10;99.90
17795;DHT22;9021;50.882;4.326;2023-02-18T13:47:34;13.10;99.90
17795;DHT22;9021;50.882;4.326;2023-02-18T13:50:12;12.90;99.90
17795;DHT22;9021;50.882;4.326;2023-02-18T13:52:38;12.80;99.90
17795;DHT22;9021;50.882;4.326;2023-02-18T13:55:03;12.70;99.90
17795;DHT22;9021;50.882;4.326;2023-02-18T13:57:29;12.80;99.90
17795;DHT22;9021;50.882;4.326;2023-02-18T13:59:58;12.70;99.90
17795;DHT22;9021;50.882;4.326;2023-02-18T14:04:55;12.80;99.90
17795;DHT22;9021;50.882;4.326;2023-02-18T14:12:37;12.50;99.90
17795;DHT22;9021;50.882;4.326;2023-02-18T14:17:48;12.50;99.90
17795;DHT22;9021;50.882;4.326;2023-02-18T14:22:46;12.50;99.90
17795;DHT22;9021;50.882;4.326;2023-02-18T14:27:39;12.60;99.90
17795;DHT22;9021;50.882;4.326;2023-02-18T14:30:15;12.60;99.90
17795;DHT22;9021;50.882;4.326;2023-02-18T14:32:42;12.60;99.90
17795;DHT22;9021;50.882;4.326;2023-02-18T14:37:45;12.60;99.90
17795;DHT22;9021;50.882;4.326;2023-02-18T14:40:17;12.50;99.90
17795;DHT22;9021;50.882;4.326;2023-02-18T14:50:34;12.50;99.90
17795;DHT22;9021;50.882;4.326;2023-02-18T14:53:07;12.60;99.90
17795;DHT22;9021;50.882;4.326;2023-02-18T14:55:38;12.60;99.90
17795;DHT22;9021;50.882;4.326;2023-02-18T14:58:12;12.80;99.90
17795;DHT22;9021;50.882;4.326;2023-02-18T15:00:43;12.80;99.90
17795;DHT22;9021;50.882;4.326;2023-02-18T15:03:12;12.80;99.90
17795;DHT22;9021;50.882;4.326;2023-02-18T15:05:37;12.70;99.90
17795;DHT22;9021;50.882;4.326;2023-02-18T15:08:04;12.70;99.90
17795;DHT22;9021;50.882;4.326;2023-02-18T15:12:59;12.70;99.90
17795;DHT22;9021;50.882;4.326;2023-02-18T15:15:26;12.60;99.90
17795;DHT22;9021;50.882;4.326;2023-02-18T15:17:51;12.70;99.90
17795;DHT22;9021;50.882;4.326;2023-02-18T15:20:17;12.70;99.90
17795;DHT22;9021;50.882;4.326;2023-02-18T15:22:42;12.70;99.90
17795;DHT22;9021;50.882;4.326;2023-02-18T15:25:12;12.70;99.90
17795;DHT22;9021;50.882;4.326;2023-02-18T15:27:39;12.70;99.90
17795;DHT22;9021;50.882;4.326;2023-02-18T15:30:16;12.60;99.90
17795;DHT22;9021;50.882;4.326;2023-02-18T15:32:49;12.70;99.90
17795;DHT22;9021;50.882;4.326;2023-02-18T15:35:16;12.80;99.90
17795;DHT22;9021;50.882;4.326;2023-02-18T15:37:45;11.10;99.90
17795;DHT22;9021;50.882;4.326;2023-02-18T15:40:12;12.80;99.90
17795;DHT22;9021;50.882;4.326;2023-02-18T15:42:38;12.80;99.90
17795;DHT22;9021;50.882;4.326;2023-02-18T15:45:08;12.80;99.90
17795;DHT22;9021;50.882;4.326;2023-02-18T15:47:41;12.70;99.90
17795;DHT22;9021;50.882;4.326;2023-02-18T15:50:14;12.80;99.90
17795;DHT22;9021;50.882;4.326;2023-02-18T15:52:40;12.80;99.90
17795;DHT22;9021;50.882;4.326;2023-02-18T15:55:09;12.80;99.90
17795;DHT22;9021;50.882;4.326;2023-02-18T15:57:35;12.90;99.90
17795;DHT22;9021;50.882;4.326;2023-02-18T16:00:03;12.90;99.90
17795;DHT22;9021;50.882;4.326;2023-02-18T16:02:31;12.90;99.90
17795;DHT22;9021;50.882;4.326;2023-02-18T16:04:58;12.90;99.90
17795;DHT22;9021;50.882;4.326;2023-02-18T16:07:26;12.80;99.90
17795;DHT22;9021;50.882;4.326;2023-02-18T16:12:32;12.70;99.90
17795;DHT22;9021;50.882;4.326;2023-02-18T16:14:58;12.60;99.90
17795;DHT22;9021;50.882;4.326;2023-02-18T16:17:25;12.70;99.90
17795;DHT22;9021;50.882;4.326;2023-02-18T16:24:55;12.70;99.90
17795;DHT22;9021;50.882;4.326;2023-02-18T16:27:20;12.70;99.90
17795;DHT22;9021;50.882;4.326;2023-02-18T16:29:48;12.70;99.90
17795;DHT22;9021;50.882;4.326;2023-02-18T16:32:14;12.60;99.90
17795;DHT22;9021;50.882;4.326;2023-02-18T16:34:40;12.50;99.90
17795;DHT22;9021;50.882;4.326;2023-02-18T16:37:05;12.50;99.90
17795;DHT22;9021;50.882;4.326;2023-02-18T16:39:50;12.60;99.90
17795;DHT22;9021;50.882;4.326;2023-02-18T16:42:19;12.70;99.90
17795;DHT22;9021;50.882;4.326;2023-02-18T16:44:44;12.70;99.90
17795;DHT22;9021;50.882;4.326;2023-02-18T16:47:15;12.60;99.90
17795;DHT22;9021;50.882;4.326;2023-02-18T16:49:42;12.60;99.90
17795;DHT22;9021;50.882;4.326;2023-02-18T16:52:09;12.60;99.90
17795;DHT22;9021;50.882;4.326;2023-02-18T16:54:35;12.60;99.90
17795;DHT22;9021;50.882;4.326;2023-02-18T16:57:00;12.60;99.90
17795;DHT22;9021;50.882;4.326;2023-02-18T16:59:25;12.70;99.90
17795;DHT22;9021;50.882;4.326;2023-02-18T17:01:51;12.50;99.90
17795;DHT22;9021;50.882;4.326;2023-02-18T17:04:17;12.60;99.90
17795;DHT22;9021;50.882;4.326;2023-02-18T17:06:44;12.60;99.90
17795;DHT22;9021;50.882;4.326;2023-02-18T17:09:16;12.50;99.90
17795;DHT22;9021;50.882;4.326;2023-02-18T17:11:45;12.50;99.90
17795;DHT22;9021;50.882;4.326;2023-02-18T17:14:14;12.50;99.90
17795;DHT22;9021;50.882;4.326;2023-02-18T17:16:42;12.40;99.90
17795;DHT22;9021;50.882;4.326;2023-02-18T17:19:08;12.30;99.90
17795;DHT22;9021;50.882;4.326;2023-02-18T17:21:33;12.80;99.90
17795;DHT22;9021;50.882;4.326;2023-02-18T17:23:59;12.50;99.90
17795;DHT22;9021;50.882;4.326;2023-02-18T17:26:25;12.60;99.90
17795;DHT22;9021;50.882;4.326;2023-02-18T17:28:52;12.50;99.90
17795;DHT22;9021;50.882;4.326;2023-02-18T17:31:19;12.50;99.90
17795;DHT22;9021;50.882;4.326;2023-02-18T17:33:47;12.30;99.90
17795;DHT22;9021;50.882;4.326;2023-02-18T17:36:12;12.50;99.90
17795;DHT22;9021;50.882;4.326;2023-02-18T17:38:38;12.40;99.90
17795;DHT22;9021;50.882;4.326;2023-02-18T17:41:04;12.30;99.90
17795;DHT22;9021;50.882;4.326;2023-02-18T17:43:30;12.40;99.90
17795;DHT22;9021;50.882;4.326;2023-02-18T17:45:56;12.40;99.90
17795;DHT22;9021;50.882;4.326;2023-02-18T17:48:22;12.40;99.90
17795;DHT22;9021;50.882;4.326;2023-02-18T17:50:48;12.30;99.90
17795;DHT22;9021;50.882;4.326;2023-02-18T17:53:14;12.40;99.90
17795;DHT22;9021;50.882;4.326;2023-02-18T17:55:40;12.30;99.90
17795;DHT22;9021;50.882;4.326;2023-02-18T17:58:07;12.30;99.90
17795;DHT22;9021;50.882;4.326;2023-02-18T18:00:39;12.40;99.90
17795;DHT22;9021;50.882;4.326;2023-02-18T18:03:05;12.30;99.90
17795;DHT22;9021;50.882;4.326;2023-02-18T18:05:32;12.40;99.90
17795;DHT22;9021;50.882;4.326;2023-02-18T18:07:58;12.40;99.90
17795;DHT22;9021;50.882;4.326;2023-02-18T18:10:25;12.40;99.90
17795;DHT22;9021;50.882;4.326;2023-02-18T18:12:56;12.60;99.90